Time;durP1;ratioP1;P1;durP2;ratioP2;P2;SDS_P1;SDS_P2;PMS_P1;PMS_P2;Temp;Humidity;BMP_temperature;BMP_pressure;BME280_temperature;BME280_humidity;BME280_pressure;Samples;Min_cycle;Max_cycle;Signal;HPM_P1;HPM_P2
2021/12/28 00:02:16;;;;;;;18.50;10.00;;;;;;;2.79;100.00;99762.75;5052450;28;20207;-73
2021/12/28 00:04:44;;;;;;;12.23;8.00;;;;;;;2.68;100.00;99764.00;5052572;28;20261;-74
2021/12/28 00:07:11;;;;;;;17.73;9.77;;;;;;;2.89;100.00;99759.78;5068611;28;20596;-73
2021/12/28 00:09:38;;;;;;;17.60;8.90;;;;;;;2.97;100.00;99760.94;5051418;28;20649;-73
2021/12/28 00:12:05;;;;;;;18.77;8.53;;;;;;;3.09;100.00;99756.31;5051258;28;20732;-73
2021/12/28 00:14:36;;;;;;;13.07;7.83;;;;;;;2.84;100.00;99768.94;5050137;28;20199;-74
2021/12/28 00:19:48;;;;;;;22.77;10.47;;;;;;;2.90;100.00;99769.19;5055714;28;20218;-73
2021/12/28 00:22:15;;;;;;;34.13;18.50;;;;;;;2.98;100.00;99773.81;5063082;28;20246;-73
2021/12/28 00:24:43;;;;;;;21.90;11.10;;;;;;;3.05;100.00;99774.91;5058832;28;20670;-73
2021/12/28 00:27:09;;;;;;;43.57;21.30;;;;;;;3.15;100.00;99777.03;5073836;28;20206;-74
2021/12/28 00:29:36;;;;;;;40.93;17.07;;;;;;;3.25;100.00;99770.56;5060251;28;20678;-75
2021/12/28 00:32:03;;;;;;;29.30;13.70;;;;;;;3.32;100.00;99783.66;5072835;28;20709;-73
2021/12/28 00:34:31;;;;;;;24.07;12.37;;;;;;;3.26;100.00;99783.44;5072446;28;20206;-73
2021/12/28 00:36:59;;;;;;;16.63;9.93;;;;;;;2.65;100.00;99697.34;5055381;28;20689;-75
2021/12/28 00:39:26;;;;;;;17.10;9.37;;;;;;;3.08;100.00;99785.28;5066943;28;20700;-73
2021/12/28 00:41:53;;;;;;;16.33;9.80;;;;;;;3.24;100.00;99785.09;5072866;28;20640;-73
2021/12/28 00:44:20;;;;;;;15.47;8.70;;;;;;;3.07;100.00;99746.81;5071736;28;20264;-73
2021/12/28 00:46:46;;;;;;;47.97;23.93;;;;;;;3.33;100.00;99794.78;5073053;28;20194;-73
2021/12/28 00:49:13;;;;;;;28.67;13.37;;;;;;;3.37;100.00;99792.41;5063559;28;20204;-73
2021/12/28 00:51:40;;;;;;;35.10;14.40;;;;;;;3.45;100.00;99791.03;5054289;28;20697;-73
2021/12/28 00:54:08;;;;;;;16.63;9.23;;;;;;;3.22;100.00;99781.56;5054598;28;20200;-73
2021/12/28 00:56:35;;;;;;;18.53;10.77;;;;;;;3.34;100.00;99799.13;5062587;28;20245;-74
2021/12/28 00:59:02;;;;;;;20.93;11.10;;;;;;;3.17;100.00;99780.53;5062959;28;20674;-74
2021/12/28 01:01:29;;;;;;;23.50;13.17;;;;;;;3.31;100.00;99789.63;5066686;28;20203;-73
2021/12/28 01:03:56;;;;;;;16.70;9.77;;;;;;;3.42;100.00;99779.78;5062480;28;20706;-74
2021/12/28 01:06:22;;;;;;;17.40;10.33;;;;;;;3.40;100.00;99769.47;5054470;28;20195;-74
2021/12/28 01:08:49;;;;;;;25.03;14.27;;;;;;;3.09;100.00;99760.56;5055008;28;20203;-73
2021/12/28 01:11:18;;;;;;;17.00;10.77;;;;;;;3.27;100.00;99763.81;5065584;28;20199;-73
2021/12/28 01:13:44;;;;;;;16.10;9.67;;;;;;;3.39;100.00;99757.47;5061023;28;20219;-74
2021/12/28 01:16:13;;;;;;;19.77;10.73;;;;;;;3.49;100.00;99764.72;5062357;28;20202;-74
2021/12/28 01:18:40;;;;;;;23.77;10.27;;;;;;;3.40;100.00;99769.47;5074022;28;20256;-73
2021/12/28 01:21:07;;;;;;;30.07;12.67;;;;;;;3.32;100.00;99770.88;5073449;28;20663;-73
2021/12/28 01:23:34;;;;;;;19.73;10.37;;;;;;;3.40;100.00;99773.72;5060525;28;20204;-73
2021/12/28 01:26:01;;;;;;;21.97;10.40;;;;;;;3.41;100.00;99775.47;5071014;28;20194;-73
2021/12/28 01:28:29;;;;;;;39.40;21.00;;;;;;;3.43;100.00;99774.72;5065023;28;20203;-74
2021/12/28 01:30:56;;;;;;;14.47;8.53;;;;;;;3.32;100.00;99775.97;5053528;28;20215;-73
2021/12/28 01:33:23;;;;;;;16.37;9.20;;;;;;;3.18;100.00;99755.78;5064109;28;20222;-73
2021/12/28 01:35:50;;;;;;;16.50;8.60;;;;;;;3.40;100.00;99766.91;5053883;28;20204;-74
2021/12/28 01:38:17;;;;;;;14.63;8.73;;;;;;;3.42;100.00;99769.53;5053840;28;20199;-75
2021/12/28 01:40:44;;;;;;;18.23;10.63;;;;;;;3.44;100.00;99776.47;5053514;28;20253;-74
2021/12/28 01:43:14;;;;;;;15.80;9.27;;;;;;;3.39;100.00;99777.97;5058228;28;20585;-74
2021/12/28 01:45:46;;;;;;;56.87;28.40;;;;;;;3.52;100.00;99778.44;5071111;28;20688;-74
2021/12/28 01:48:15;;;;;;;19.23;10.90;;;;;;;3.35;100.00;99785.50;5069124;28;20192;-73
2021/12/28 01:50:43;;;;;;;140.47;60.93;;;;;;;3.27;100.00;99769.81;5053667;28;20204;-74
2021/12/28 01:53:11;;;;;;;23.80;14.73;;;;;;;2.94;100.00;99783.84;5056391;28;20222;-74
2021/12/28 01:55:40;;;;;;;30.57;16.57;;;;;;;3.03;100.00;99770.56;5072934;28;20214;-74
2021/12/28 01:58:07;;;;;;;46.23;22.77;;;;;;;3.01;100.00;99778.16;5071082;28;21063;-74
2021/12/28 02:00:35;;;;;;;16.27;9.23;;;;;;;2.86;100.00;99772.44;5056560;28;20199;-73
2021/12/28 02:03:08;;;;;;;16.00;10.87;;;;;;;3.05;100.00;99768.91;5070422;28;20195;-75
2021/12/28 02:05:35;;;;;;;17.77;12.37;;;;;;;2.94;100.00;99771.06;5053399;28;20666;-74
2021/12/28 02:08:03;;;;;;;28.93;18.90;;;;;;;2.94;100.00;99781.31;5054131;28;20195;-74
2021/12/28 02:10:30;;;;;;;15.37;10.47;;;;;;;3.01;100.00;99778.16;5054233;28;20203;-74
2021/12/28 02:12:57;;;;;;;11.27;7.37;;;;;;;2.86;100.00;99768.19;5053799;28;20234;-74
2021/12/28 02:15:24;;;;;;;27.83;16.73;;;;;;;2.98;100.00;99767.81;5067232;28;20265;-74
2021/12/28 02:17:50;;;;;;;13.60;7.93;;;;;;;2.99;100.00;99759.31;5071914;28;20210;-74
2021/12/28 02:20:21;;;;;;;12.83;8.00;;;;;;;3.08;100.00;99754.56;5052838;28;20224;-74
2021/12/28 02:22:48;;;;;;;13.90;9.23;;;;;;;3.00;100.00;99761.06;5053808;28;20690;-76
2021/12/28 02:25:16;;;;;;;13.50;8.47;;;;;;;3.11;100.00;99758.91;5071998;28;20199;-74
2021/12/28 02:27:44;;;;;;;9.63;7.10;;;;;;;2.99;100.00;99764.44;5072576;28;20207;-75
2021/12/28 02:30:13;;;;;;;9.77;7.93;;;;;;;3.00;100.00;99769.59;5035760;28;20697;-74
2021/12/28 02:32:41;;;;;;;11.03;6.83;;;;;;;2.86;100.00;99764.75;5052954;28;20223;-74
2021/12/28 02:35:12;;;;;;;10.97;7.30;;;;;;;2.89;100.00;99752.09;5052393;28;20196;-74
2021/12/28 02:37:40;;;;;;;9.27;7.10;;;;;;;2.85;100.00;99750.22;5060703;28;20628;-74
2021/12/28 02:40:09;;;;;;;10.13;7.30;;;;;;;2.94;100.00;99717.28;5053377;28;20206;-75
2021/12/28 02:42:36;;;;;;;7.43;6.43;;;;;;;3.15;100.00;99741.16;5066204;28;20588;-74
2021/12/28 02:45:10;;;;;;;13.00;7.27;;;;;;;2.85;100.00;99668.31;5070758;28;20210;-74
2021/12/28 02:47:37;;;;;;;8.53;6.57;;;;;;;3.34;100.00;99738.50;5042966;28;20195;-74
2021/12/28 02:50:07;;;;;;;11.57;7.17;;;;;;;3.28;100.00;99745.94;5053390;28;20196;-74
2021/12/28 02:52:36;;;;;;;10.13;6.97;;;;;;;3.13;100.00;99737.69;5052037;28;20636;-74
2021/12/28 02:55:05;;;;;;;45.33;27.03;;;;;;;3.02;100.00;99738.97;5066149;28;20199;-74
2021/12/28 02:57:32;;;;;;;12.13;7.57;;;;;;;3.00;100.00;99745.69;5054551;28;20678;-74
2021/12/28 02:59:59;;;;;;;12.97;8.27;;;;;;;2.81;100.00;99748.34;5069195;28;20209;-74
2021/12/28 03:02:26;;;;;;;22.70;13.40;;;;;;;2.86;100.00;99745.16;5060596;28;20202;-74
2021/12/28 03:04:53;;;;;;;16.53;11.67;;;;;;;2.86;100.00;99741.72;5072176;28;20202;-74
2021/12/28 03:07:20;;;;;;;15.50;8.10;;;;;;;2.86;100.00;99744.25;5071679;28;20581;-74
2021/12/28 03:09:47;;;;;;;21.30;13.40;;;;;;;2.79;100.00;99738.03;5070023;28;20240;-75
2021/12/28 03:12:15;;;;;;;21.67;12.37;;;;;;;2.83;100.00;99746.72;5054939;28;20210;-74
2021/12/28 03:14:42;;;;;;;17.83;12.47;;;;;;;2.87;100.00;99748.59;5065970;28;20259;-74
2021/12/28 03:17:09;;;;;;;24.30;15.17;;;;;;;2.71;100.00;99747.09;5069999;28;20210;-75
2021/12/28 03:19:36;;;;;;;19.43;13.13;;;;;;;2.66;100.00;99752.84;5057564;28;20688;-74
2021/12/28 03:22:03;;;;;;;14.90;10.20;;;;;;;2.90;100.00;99748.69;5051664;28;20606;-73
2021/12/28 03:24:30;;;;;;;18.47;12.50;;;;;;;2.74;100.00;99754.03;5052005;28;20638;-74
2021/12/28 03:26:57;;;;;;;18.47;11.37;;;;;;;2.84;100.00;99757.03;5068701;28;20207;-74
2021/12/28 03:29:25;;;;;;;17.50;9.73;;;;;;;2.87;100.00;99733.22;5059141;28;20200;-74
2021/12/28 03:31:52;;;;;;;18.03;11.63;;;;;;;2.92;100.00;99758.22;5052056;28;20202;-74
2021/12/28 03:34:19;;;;;;;11.87;7.83;;;;;;;2.75;100.00;99753.19;5052605;28;20223;-74
2021/12/28 03:36:45;;;;;;;13.10;8.17;;;;;;;2.83;100.00;99754.38;5051642;28;20670;-74
2021/12/28 03:39:12;;;;;;;10.23;7.33;;;;;;;2.82;100.00;99758.63;5061440;28;20218;-75
2021/12/28 03:41:40;;;;;;;10.50;7.50;;;;;;;2.89;100.00;99757.22;5056516;28;20200;-74
2021/12/28 03:44:07;;;;;;;10.97;6.77;;;;;;;2.86;100.00;99757.06;5069434;28;20229;-74
2021/12/28 03:46:35;;;;;;;8.27;5.73;;;;;;;2.84;100.00;99730.53;5069745;28;20233;-73
2021/12/28 03:49:03;;;;;;;15.77;8.93;;;;;;;2.75;100.00;99763.44;5063269;28;20199;-74
2021/12/28 03:51:30;;;;;;;13.30;8.27;;;;;;;2.90;100.00;99758.94;5051806;28;20208;-74
2021/12/28 03:53:57;;;;;;;11.87;8.13;;;;;;;2.90;100.00;99769.19;5067705;28;20229;-74
2021/12/28 03:56:24;;;;;;;11.27;7.70;;;;;;;2.99;100.00;99759.31;5075456;28;20347;-74
2021/12/28 03:58:52;;;;;;;10.33;7.63;;;;;;;3.00;100.00;99761.06;5068816;28;20199;-73
2021/12/28 04:01:22;;;;;;;10.30;6.83;;;;;;;3.08;100.00;99758.78;5055637;28;20203;-74
2021/12/28 04:03:50;;;;;;;11.83;7.90;;;;;;;2.82;100.00;99720.22;5066103;28;20190;-73
2021/12/28 04:06:19;;;;;;;14.67;7.90;;;;;;;3.08;100.00;99764.78;5075515;28;20209;-73
2021/12/28 04:08:46;;;;;;;36.07;15.07;;;;;;;2.63;100.00;99697.31;5069456;28;20226;-73
2021/12/28 04:11:28;;;;;;;53.50;21.37;;;;;;;3.18;100.00;99766.91;5057796;28;20199;-74
2021/12/28 04:14:01;;;;;;;13.60;7.93;;;;;;;3.14;100.00;99774.41;5074022;28;20218;-73
2021/12/28 04:16:29;;;;;;;12.47;8.17;;;;;;;2.87;100.00;99763.94;5074893;28;20206;-73
2021/12/28 04:18:58;;;;;;;17.87;10.47;;;;;;;3.16;100.00;99755.72;5073481;28;20198;-74
2021/12/28 04:21:25;;;;;;;21.97;11.00;;;;;;;3.28;100.00;99770.72;5074526;28;20223;-76
2021/12/28 04:23:52;;;;;;;26.37;14.00;;;;;;;3.27;100.00;99781.75;5035190;28;20714;-74
2021/12/28 04:26:20;;;;;;;57.63;25.90;;;;;;;3.28;100.00;99779.25;5046924;28;20228;-74
2021/12/28 04:28:47;;;;;;;25.53;13.37;;;;;;;3.25;100.00;99778.25;5062703;28;20203;-74
2021/12/28 04:31:14;;;;;;;212.33;82.60;;;;;;;3.21;100.00;99781.53;5065803;28;20226;-74
2021/12/28 04:33:41;;;;;;;81.83;32.57;;;;;;;3.38;100.00;99771.13;5074381;28;20222;-74
2021/12/28 04:36:13;;;;;;;180.37;67.90;;;;;;;3.43;100.00;99779.84;5068348;28;20678;-74
2021/12/28 04:38:42;;;;;;;49.63;22.80;;;;;;;3.52;100.00;99773.31;5059217;28;20195;-74
2021/12/28 04:41:09;;;;;;;23.90;13.33;;;;;;;3.43;100.00;99778.97;5058765;28;20227;-74
2021/12/28 04:43:37;;;;;;;42.83;23.77;;;;;;;3.52;100.00;99770.75;5040385;28;20586;-74
2021/12/28 04:46:04;;;;;;;54.83;27.60;;;;;;;3.33;100.00;99775.19;5073643;28;20259;-74
2021/12/28 04:48:31;;;;;;;33.37;18.17;;;;;;;3.45;100.00;99780.78;5070299;28;20206;-74
2021/12/28 04:50:58;;;;;;;50.80;23.37;;;;;;;3.45;100.00;99774.78;5073837;28;20191;-74
2021/12/28 04:53:26;;;;;;;58.60;26.20;;;;;;;3.53;100.00;99769.94;5072553;28;20214;-74
2021/12/28 04:55:53;;;;;;;13.07;8.20;;;;;;;3.36;100.00;99769.28;5055811;28;20218;-74
2021/12/28 04:58:20;;;;;;;67.13;32.90;;;;;;;3.38;100.00;99763.44;5055945;28;20599;-74
2021/12/28 05:00:49;;;;;;;36.57;19.43;;;;;;;3.43;100.00;99759.34;5067565;28;20206;-74
2021/12/28 05:03:17;;;;;;;28.30;17.70;;;;;;;3.30;100.00;99752.00;5073518;28;20195;-74
2021/12/28 05:05:48;;;;;;;21.53;13.30;;;;;;;3.41;100.00;99762.66;5073337;28;20201;-74
2021/12/28 05:08:16;;;;;;;33.70;19.17;;;;;;;3.33;100.00;99764.94;5071842;28;20207;-74
2021/12/28 05:10:44;;;;;;;34.97;18.63;;;;;;;3.28;100.00;99769.00;5054059;28;20206;-74
2021/12/28 05:13:12;;;;;;;25.57;12.50;;;;;;;3.13;100.00;99770.97;5069824;28;20666;-73
2021/12/28 05:15:41;;;;;;;19.57;11.47;;;;;;;3.06;100.00;99745.06;5063470;28;20195;-73
2021/12/28 05:18:09;;;;;;;20.00;12.10;;;;;;;3.07;100.00;99755.34;5074061;28;20209;-74
2021/12/28 05:20:36;;;;;;;24.87;13.17;;;;;;;3.08;100.00;99757.09;5058274;28;20230;-74
2021/12/28 05:23:02;;;;;;;20.27;11.53;;;;;;;3.02;100.00;99769.69;5070808;28;20198;-74
2021/12/28 05:25:30;;;;;;;20.40;10.93;;;;;;;2.82;100.00;99724.47;5055294;28;20748;-74
2021/12/28 05:27:58;;;;;;;25.17;12.70;;;;;;;3.08;100.00;99771.59;5059913;28;20258;-74
2021/12/28 05:30:25;;;;;;;16.43;10.43;;;;;;;2.99;100.00;99757.66;5055899;28;20207;-74
2021/12/28 05:32:52;;;;;;;15.93;8.43;;;;;;;2.96;100.00;99769.44;5055330;28;20219;-74
2021/12/28 05:35:19;;;;;;;15.83;9.33;;;;;;;3.11;100.00;99780.28;5053324;28;20223;-74
2021/12/28 05:37:46;;;;;;;14.57;8.70;;;;;;;3.21;100.00;99781.53;5053264;28;20584;-74
2021/12/28 05:40:14;;;;;;;13.27;8.37;;;;;;;3.22;100.00;99779.00;5059212;28;20202;-74
2021/12/28 05:42:41;;;;;;;14.20;8.17;;;;;;;3.07;100.00;99782.69;5054520;28;20261;-75
2021/12/28 05:45:10;;;;;;;16.67;9.67;;;;;;;3.13;100.00;99783.78;5052511;28;20195;-75
2021/12/28 05:47:37;;;;;;;26.87;13.63;;;;;;;3.15;100.00;99782.16;5051660;28;20624;-74
2021/12/28 05:50:05;;;;;;;32.60;17.40;;;;;;;3.15;100.00;99797.50;5053454;28;20261;-74
2021/12/28 05:52:32;;;;;;;25.47;13.17;;;;;;;2.83;100.00;99767.19;5056658;28;20576;-75
2021/12/28 05:54:59;;;;;;;16.23;8.97;;;;;;;3.15;100.00;99792.41;5060333;28;20219;-74
2021/12/28 05:57:25;;;;;;;11.30;7.47;;;;;;;3.11;100.00;99807.56;5059841;28;20199;-74
2021/12/28 05:59:52;;;;;;;11.33;7.47;;;;;;;2.88;100.00;99811.78;5052823;28;20631;-74
2021/12/28 06:02:20;;;;;;;14.80;8.93;;;;;;;2.83;100.00;99811.59;5053591;28;20210;-74
2021/12/28 06:04:47;;;;;;;17.87;9.57;;;;;;;2.66;100.00;99804.03;5052329;28;20260;-74
2021/12/28 06:07:14;;;;;;;39.13;17.27;;;;;;;2.92;100.00;99803.41;5053423;28;20207;-75
2021/12/28 06:09:41;;;;;;;32.17;15.43;;;;;;;3.07;100.00;99804.00;5050913;28;20191;-74
2021/12/28 06:12:09;;;;;;;20.47;9.13;;;;;;;3.15;100.00;99805.19;5051462;28;20187;-74
2021/12/28 06:14:36;;;;;;;10.83;7.83;;;;;;;3.20;100.00;99811.38;5051389;28;20220;-75
2021/12/28 06:17:03;;;;;;;19.23;10.47;;;;;;;3.19;100.00;99809.63;5053748;28;20736;-74
2021/12/28 06:19:31;;;;;;;21.37;10.23;;;;;;;3.08;100.00;99803.22;5050657;28;20226;-74
2021/12/28 06:21:58;;;;;;;12.63;7.37;;;;;;;3.14;100.00;99806.00;5050640;28;20235;-75
2021/12/28 06:24:24;;;;;;;20.97;9.97;;;;;;;3.19;100.00;99803.63;5062405;28;20207;-74
2021/12/28 06:26:51;;;;;;;12.30;6.97;;;;;;;3.11;100.00;99794.75;5052564;28;20203;-75
2021/12/28 06:29:18;;;;;;;35.80;17.57;;;;;;;3.26;100.00;99801.38;5059779;28;20203;-72
2021/12/28 06:31:45;;;;;;;22.37;11.53;;;;;;;2.93;100.00;99748.81;5072485;28;20202;-76
2021/12/28 06:34:12;;;;;;;22.03;11.77;;;;;;;2.92;100.00;99724.06;5072798;28;20241;-77
2021/12/28 06:36:40;;;;;;;19.40;9.87;;;;;;;3.44;100.00;99802.09;5067710;28;20199;-77
2021/12/28 06:39:07;;;;;;;13.83;7.47;;;;;;;3.51;100.00;99798.06;5059882;28;20207;-79
2021/12/28 06:41:34;;;;;;;15.77;9.20;;;;;;;3.61;100.00;99812.09;5072191;28;20206;-76
2021/12/28 06:44:01;;;;;;;21.13;8.13;;;;;;;3.72;100.00;99813.38;5066949;28;20226;-76
2021/12/28 06:46:28;;;;;;;28.87;11.40;;;;;;;3.82;100.00;99810.34;5070835;28;20192;-75
2021/12/28 06:48:55;;;;;;;21.20;10.00;;;;;;;3.85;100.00;99810.47;5072638;28;20199;-77
2021/12/28 06:51:22;;;;;;;25.83;15.13;;;;;;;3.87;100.00;99813.97;5070000;28;20211;-77
2021/12/28 06:53:50;;;;;;;16.10;9.07;;;;;;;4.07;100.00;99824.97;5053104;28;20451;-77
2021/12/28 06:56:17;;;;;;;11.77;7.03;;;;;;;4.11;100.00;99829.38;5052469;28;20227;-77
2021/12/28 06:58:44;;;;;;;10.67;7.13;;;;;;;3.75;100.00;99827.19;5065004;28;20688;-73
2021/12/28 07:01:11;;;;;;;14.50;7.97;;;;;;;3.95;100.00;99836.53;5053723;28;20200;-76
2021/12/28 07:03:38;;;;;;;18.10;9.13;;;;;;;4.21;100.00;99842.56;5064202;28;20205;-74
2021/12/28 07:06:06;;;;;;;17.47;9.47;;;;;;;4.20;100.00;99850.25;5072013;28;20564;-76
2021/12/28 07:08:33;;;;;;;11.80;7.57;;;;;;;3.94;100.00;99846.72;5069971;28;20208;-73
2021/12/28 07:11:02;;;;;;;12.43;8.57;;;;;;;3.74;100.00;99852.78;5072372;28;20221;-76
2021/12/28 07:13:29;;;;;;;14.23;7.87;;;;;;;3.72;100.00;99849.28;5062148;28;20200;-78
2021/12/28 07:15:55;;;;;;;20.17;11.37;;;;;;;3.91;100.00;99854.28;5057258;28;20199;-77
2021/12/28 07:18:22;;;;;;;11.70;8.53;;;;;;;3.72;100.00;99823.63;5045036;28;20751;-78
2021/12/28 07:20:49;;;;;;;10.90;7.40;;;;;;;3.71;100.00;99848.38;5051303;28;20657;-73
2021/12/28 07:23:16;;;;;;;21.40;9.27;;;;;;;3.87;100.00;99850.75;5055085;28;20673;-72
2021/12/28 07:25:44;;;;;;;23.17;11.93;;;;;;;3.92;100.00;99845.78;5072309;28;20198;-75
2021/12/28 07:28:12;;;;;;;19.70;11.70;;;;;;;3.95;100.00;99848.47;5046530;28;20748;-70
2021/12/28 07:30:39;;;;;;;13.50;8.03;;;;;;;3.37;100.00;99768.47;5051072;28;20202;-76
2021/12/28 07:33:06;;;;;;;18.80;9.40;;;;;;;3.95;100.00;99843.34;5055388;28;20213;-75
2021/12/28 07:35:33;;;;;;;22.70;12.27;;;;;;;4.06;100.00;99852.31;5063844;28;20219;-75
2021/12/28 07:37:59;;;;;;;16.33;8.90;;;;;;;4.21;100.00;99845.13;5042799;28;20208;-75
2021/12/28 07:40:26;;;;;;;14.50;8.87;;;;;;;4.15;100.00;99846.63;5053053;28;20208;-74
2021/12/28 07:42:53;;;;;;;44.07;21.53;;;;;;;4.21;100.00;99850.28;5062799;28;20199;-74
2021/12/28 07:45:22;;;;;;;19.57;11.17;;;;;;;4.16;100.00;99859.50;5061101;28;20202;-75
2021/12/28 07:47:49;;;;;;;61.10;27.47;;;;;;;4.13;100.00;99861.97;5071446;28;20202;-75
2021/12/28 07:50:18;;;;;;;33.27;15.00;;;;;;;4.34;100.00;99860.19;5071791;28;20203;-74
2021/12/28 07:52:46;;;;;;;16.53;9.20;;;;;;;4.21;100.00;99855.41;5071490;28;20654;-75
2021/12/28 07:55:14;;;;;;;11.57;8.70;;;;;;;4.38;100.00;99862.03;5066528;28;20230;-75
2021/12/28 07:57:41;;;;;;;17.13;8.70;;;;;;;4.41;100.00;99863.84;5053697;28;20191;-74
2021/12/28 08:00:11;;;;;;;13.93;8.80;;;;;;;4.45;100.00;99869.16;5052114;28;20188;-73
2021/12/28 08:02:39;;;;;;;14.00;7.67;;;;;;;4.46;100.00;99870.88;5071665;28;20201;-74
2021/12/28 08:05:07;;;;;;;15.30;9.03;;;;;;;4.53;100.00;99874.53;5071558;28;20202;-76
2021/12/28 08:07:34;;;;;;;18.57;9.47;;;;;;;4.01;100.00;99797.38;5060633;28;20184;-75
2021/12/28 08:10:01;;;;;;;16.83;8.70;;;;;;;4.33;100.00;99871.25;5051302;28;20611;-74
2021/12/28 08:12:28;;;;;;;17.47;8.57;;;;;;;4.15;100.00;99878.28;5051647;28;20199;-74
2021/12/28 08:14:55;;;;;;;13.93;8.40;;;;;;;4.19;100.00;99869.88;5050701;28;20219;-74
2021/12/28 08:17:22;;;;;;;15.67;9.90;;;;;;;4.16;100.00;99862.06;5052467;28;20211;-75
2021/12/28 08:19:50;;;;;;;52.53;23.20;;;;;;;4.29;100.00;99877.09;5053102;28;20770;-74
2021/12/28 08:22:17;;;;;;;24.37;13.20;;;;;;;4.36;100.00;99870.47;5051421;28;20223;-74
2021/12/28 08:24:43;;;;;;;17.23;10.23;;;;;;;4.25;100.00;99877.78;5047809;28;20203;-74
2021/12/28 08:27:10;;;;;;;17.33;10.40;;;;;;;4.25;100.00;99867.53;5047582;28;20215;-74
2021/12/28 08:29:37;;;;;;;18.10;9.97;;;;;;;4.43;100.00;99885.28;5050453;28;20219;-75
2021/12/28 08:32:05;;;;;;;16.57;9.73;;;;;;;4.29;100.00;99883.91;5051099;28;20218;-74
2021/12/28 08:34:31;;;;;;;15.60;10.83;;;;;;;4.05;100.00;99865.06;5049718;28;20234;-76
2021/12/28 08:36:59;;;;;;;15.53;10.43;;;;;;;4.13;100.00;99885.06;5054099;28;20249;-74
2021/12/28 08:39:26;;;;;;;17.40;9.93;;;;;;;3.71;100.00;99868.91;5050418;28;20199;-75
2021/12/28 08:41:53;;;;;;;17.77;9.77;;;;;;;3.93;100.00;99866.34;5051110;28;20199;-74
2021/12/28 08:44:20;;;;;;;18.67;10.90;;;;;;;4.21;100.00;99855.41;5070831;28;20199;-75
2021/12/28 08:46:47;;;;;;;16.77;10.27;;;;;;;4.11;100.00;99844.75;5059352;28;20571;-74
2021/12/28 08:49:13;;;;;;;14.30;8.97;;;;;;;4.16;100.00;99854.38;5067091;28;20203;-74
2021/12/28 08:51:40;;;;;;;17.03;9.83;;;;;;;4.31;100.00;99844.69;5056087;28;20199;-72
2021/12/28 08:54:09;;;;;;;16.13;9.07;;;;;;;3.89;100.00;99835.38;5048532;28;20678;-72
2021/12/28 08:56:36;;;;;;;16.90;9.90;;;;;;;4.18;100.00;99857.88;5053745;28;20294;-72
2021/12/28 08:59:03;;;;;;;14.73;9.17;;;;;;;4.31;100.00;99862.66;5050988;28;20208;-73
2021/12/28 09:01:30;;;;;;;14.43;9.00;;;;;;;4.31;100.00;99854.06;5074817;28;20202;-75
2021/12/28 09:03:56;;;;;;;16.93;9.70;;;;;;;4.25;100.00;99862.41;5072416;28;20206;-72
2021/12/28 09:06:23;;;;;;;43.97;17.57;;;;;;;4.41;100.00;99862.16;5071249;28;20195;-72
2021/12/28 09:08:50;;;;;;;29.87;13.27;;;;;;;4.10;100.00;99861.88;5071750;28;20195;-73
2021/12/28 09:11:19;;;;;;;23.43;13.20;;;;;;;4.22;100.00;99852.03;5056032;28;20245;-72
2021/12/28 09:13:46;;;;;;;19.60;11.67;;;;;;;4.08;100.00;99799.34;5073057;28;20207;-72
2021/12/28 09:16:13;;;;;;;18.23;11.47;;;;;;;4.58;100.00;99843.88;5072995;28;20222;-74
2021/12/28 09:18:40;;;;;;;22.37;13.17;;;;;;;4.66;100.00;99847.59;5073671;28;20276;-73
2021/12/28 09:21:07;;;;;;;27.33;14.77;;;;;;;4.81;100.00;99848.13;5055404;28;20239;-74
2021/12/28 09:23:33;;;;;;;20.73;11.97;;;;;;;4.96;100.00;99846.94;5051154;28;20685;-75
2021/12/28 09:26:00;;;;;;;22.97;12.60;;;;;;;4.83;100.00;99844.78;5044468;28;20203;-77
2021/12/28 09:28:28;;;;;;;22.70;12.97;;;;;;;5.01;100.00;99852.22;5044744;28;20212;-75
2021/12/28 09:30:55;;;;;;;19.17;12.63;;;;;;;4.95;100.00;99857.16;5052180;28;20204;-77
2021/12/28 09:33:24;;;;;;;16.50;9.73;;;;;;;4.69;100.00;99856.28;5053234;28;20214;-74
2021/12/28 09:35:51;;;;;;;14.47;9.80;;;;;;;4.76;100.00;99854.78;5065377;28;20612;-75
2021/12/28 09:38:19;;;;;;;24.63;13.03;;;;;;;4.70;100.00;99854.59;5059098;28;20678;-76
2021/12/28 09:40:48;;;;;;;24.73;13.03;;;;;;;4.79;100.00;99855.78;5054961;28;20203;-75
2021/12/28 09:43:15;;;;;;;21.40;13.10;;;;;;;4.34;100.00;99824.25;5053756;28;20200;-74
2021/12/28 09:45:46;;;;;;;21.07;12.17;;;;;;;4.60;100.00;99852.53;5052844;28;20204;-74
2021/12/28 09:48:13;;;;;;;19.40;11.50;;;;;;;4.53;100.00;99825.75;5042318;28;20500;-76
2021/12/28 09:50:42;;;;;;;21.10;11.93;;;;;;;4.21;100.00;99837.44;5051270;28;20616;-74
2021/12/28 09:53:12;;;;;;;17.83;11.73;;;;;;;4.56;100.00;99832.69;5052567;28;20203;-75
2021/12/28 09:55:39;;;;;;;18.10;10.90;;;;;;;4.60;100.00;99832.88;5048003;28;20238;-72
2021/12/28 09:58:06;;;;;;;19.17;10.90;;;;;;;4.70;100.00;99837.50;5050249;28;20203;-75
2021/12/28 10:00:33;;;;;;;18.03;10.87;;;;;;;4.68;100.00;99830.53;5051063;28;20211;-73
2021/12/28 10:03:01;;;;;;;21.93;13.27;;;;;;;4.81;100.00;99845.56;5059260;28;20206;-74
2021/12/28 10:05:29;;;;;;;18.60;11.67;;;;;;;4.68;100.00;99827.97;5072947;28;20689;-72
2021/12/28 10:07:58;;;;;;;15.97;10.17;;;;;;;4.71;100.00;99840.94;5060266;28;20203;-76
2021/12/28 10:10:28;;;;;;;19.77;11.87;;;;;;;4.66;100.00;99814.22;5051336;28;20188;-74
2021/12/28 10:12:57;;;;;;;19.00;10.50;;;;;;;4.54;100.00;99800.94;5050417;28;20241;-74
2021/12/28 10:15:25;;;;;;;19.60;11.77;;;;;;;4.86;100.00;99844.00;5051826;28;20212;-75
2021/12/28 10:17:54;;;;;;;24.23;13.57;;;;;;;4.74;100.00;99841.03;5053192;28;20234;-73
2021/12/28 10:20:25;;;;;;;17.10;10.53;;;;;;;4.73;100.00;99847.00;5053312;28;20222;-75
2021/12/28 10:22:54;;;;;;;18.50;11.70;;;;;;;4.40;100.00;99809.06;5052813;28;20195;-79
2021/12/28 10:25:23;;;;;;;24.93;14.43;;;;;;;4.91;100.00;99829.63;5050993;28;20203;-74
2021/12/28 10:27:53;;;;;;;19.53;11.23;;;;;;;5.04;100.00;99836.03;5062019;28;20204;-75
2021/12/28 10:30:24;;;;;;;20.43;10.90;;;;;;;4.94;100.00;99840.88;5054816;28;20199;-78
2021/12/28 10:32:52;;;;;;;17.57;9.83;;;;;;;4.88;100.00;99847.50;5059740;28;20562;-76
2021/12/28 10:35:23;;;;;;;17.30;10.93;;;;;;;4.80;100.00;99856.66;5061657;28;20226;-75
2021/12/28 10:37:52;;;;;;;18.93;11.07;;;;;;;4.66;100.00;99839.91;5065105;28;20701;-76
2021/12/28 10:40:26;;;;;;;22.40;12.43;;;;;;;4.30;100.00;99839.47;5053432;28;20199;-75
2021/12/28 10:42:59;;;;;;;24.47;14.03;;;;;;;4.27;100.00;99842.81;5072630;28;20207;-76
2021/12/28 10:45:28;;;;;;;22.87;12.97;;;;;;;4.41;100.00;99845.88;5054924;28;20262;-75
2021/12/28 10:47:56;;;;;;;17.73;11.20;;;;;;;4.25;100.00;99836.75;5052470;28;20203;-73
2021/12/28 10:50:38;;;;;;;18.60;11.23;;;;;;;3.95;100.00;99751.00;5053777;28;20200;-74
2021/12/28 10:53:18;;;;;;;23.27;14.20;;;;;;;4.57;100.00;99826.72;5057390;28;20219;-75
2021/12/28 10:55:46;;;;;;;27.77;15.23;;;;;;;4.74;100.00;99799.94;5051170;28;20292;-74
2021/12/28 10:58:22;;;;;;;27.70;15.77;;;;;;;4.74;100.00;99793.13;5050966;28;20590;-78
2021/12/28 11:00:49;;;;;;;141.90;68.60;;;;;;;5.04;100.00;99816.34;5051290;28;20592;-75
2021/12/28 11:03:26;;;;;;;81.57;33.67;;;;;;;5.20;100.00;99805.75;5052270;28;20207;-73
2021/12/28 11:05:56;;;;;;;24.50;13.60;;;;;;;5.14;100.00;99820.09;5069906;28;20236;-73
2021/12/28 11:08:26;;;;;;;17.33;10.93;;;;;;;4.57;100.00;99826.72;5056080;28;20223;-73
2021/12/28 11:10:55;;;;;;;21.53;12.43;;;;;;;4.70;100.00;99840.06;5049810;28;20207;-72
2021/12/28 11:13:25;;;;;;;17.47;9.70;;;;;;;4.58;100.00;99828.47;5049660;28;20261;-74
2021/12/28 11:15:52;;;;;;;18.47;11.07;;;;;;;4.76;100.00;99814.56;5069055;28;20654;-73
2021/12/28 11:18:21;;;;;;;15.13;9.70;;;;;;;4.69;100.00;99838.31;5070707;28;20202;-74
2021/12/28 11:20:50;;;;;;;18.37;9.60;;;;;;;4.58;100.00;99838.75;5070586;28;20621;-72
2021/12/28 11:23:23;;;;;;;17.17;9.60;;;;;;;4.54;100.00;99831.75;5058869;28;20222;-73
2021/12/28 11:26:02;;;;;;;19.27;10.13;;;;;;;4.55;100.00;99831.81;5068858;28;20256;-73
2021/12/28 11:28:30;;;;;;;17.17;9.97;;;;;;;4.35;100.00;99825.97;5050458;28;20670;-73